Time;durP1;ratioP1;P1;durP2;ratioP2;P2;SDS_P1;SDS_P2;PMS_P1;PMS_P2;Temp;Humidity;BMP_temperature;BMP_pressure;BME280_temperature;BME280_humidity;BME280_pressure;Samples;Min_cycle;Max_cycle;Signal;HPM_P1;HPM_P2
2021/03/13 00:00:45;;;;;;;8.87;3.73;;;7.50;99.90;;;;;;5008690;28;20258;-79
2021/03/13 00:03:31;;;;;;;14.80;4.07;;;7.50;99.90;;;;;;5016823;28;20232;-79
2021/03/13 00:06:18;;;;;;;13.83;2.93;;;7.50;99.90;;;;;;5020211;28;20262;-79
2021/03/13 00:09:03;;;;;;;12.20;3.37;;;7.50;99.90;;;;;;5014612;28;20216;-79
2021/03/13 00:11:48;;;;;;;11.63;3.30;;;7.60;99.90;;;;;;5016199;28;20215;-79
2021/03/13 00:14:33;;;;;;;13.83;3.90;;;7.60;99.90;;;;;;5010941;28;20259;-79
2021/03/13 00:17:18;;;;;;;12.47;3.20;;;7.60;99.90;;;;;;5021094;28;20246;-79
2021/03/13 00:20:05;;;;;;;9.30;3.00;;;7.60;99.90;;;;;;5011698;28;20208;-79
2021/03/13 00:22:50;;;;;;;10.73;3.43;;;7.50;99.90;;;;;;5018649;28;20618;-79
2021/03/13 00:25:36;;;;;;;9.00;2.97;;;7.50;99.90;;;;;;5009475;28;20207;-80
2021/03/13 00:28:21;;;;;;;13.80;3.40;;;7.50;99.90;;;;;;5014316;28;20223;-79
2021/03/13 00:31:06;;;;;;;12.93;2.90;;;7.50;99.90;;;;;;5015230;28;20691;-79
2021/03/13 00:33:51;;;;;;;9.00;2.60;;;7.50;99.90;;;;;;5007532;28;20213;-79
2021/03/13 00:36:36;;;;;;;9.83;3.30;;;7.50;99.90;;;;;;5009629;28;20274;-79
2021/03/13 00:39:21;;;;;;;10.93;3.30;;;7.40;99.90;;;;;;5015087;28;20274;-79
2021/03/13 00:42:07;;;;;;;14.00;3.33;;;7.40;99.90;;;;;;5015004;28;20251;-79
2021/03/13 00:44:52;;;;;;;13.73;3.33;;;7.40;99.90;;;;;;5014814;28;20323;-79
2021/03/13 00:47:36;;;;;;;8.40;3.50;;;7.40;99.90;;;;;;5012520;28;20223;-79
2021/03/13 00:50:23;;;;;;;7.17;2.50;;;7.40;99.90;;;;;;5012582;28;20258;-79
2021/03/13 00:53:09;;;;;;;11.57;4.40;;;7.40;99.90;;;;;;5011832;28;20290;-79
2021/03/13 00:55:54;;;;;;;9.57;3.13;;;7.50;99.90;;;;;;5014740;28;20675;-79
2021/03/13 00:58:41;;;;;;;12.47;3.70;;;7.50;99.90;;;;;;5014112;28;20256;-79
2021/03/13 01:01:26;;;;;;;16.63;3.77;;;7.50;99.90;;;;;;5013694;28;20719;-79
2021/03/13 01:04:11;;;;;;;13.40;3.33;;;7.50;99.90;;;;;;5015518;28;20196;-79
2021/03/13 01:06:56;;;;;;;11.33;3.40;;;7.50;99.90;;;;;;5034329;28;20239;-80
2021/03/13 01:09:41;;;;;;;13.13;3.90;;;7.50;99.90;;;;;;5007880;28;20550;-80
2021/03/13 01:12:27;;;;;;;8.70;2.73;;;7.60;99.90;;;;;;5018242;28;20288;-79
2021/03/13 01:15:15;;;;;;;8.77;3.50;;;7.60;99.90;;;;;;5021463;28;20219;-79
2021/03/13 01:18:00;;;;;;;9.80;3.57;;;7.60;99.90;;;;;;5011121;28;20308;-79
2021/03/13 01:20:46;;;;;;;11.20;3.57;;;7.60;99.90;;;;;;5007598;28;20219;-79
2021/03/13 01:23:31;;;;;;;10.07;3.60;;;7.60;99.90;;;;;;5019990;28;20208;-79
2021/03/13 01:26:17;;;;;;;13.63;4.53;;;7.60;99.90;;;;;;5014763;28;20251;-79
2021/03/13 01:29:02;;;;;;;11.53;4.00;;;7.50;99.90;;;;;;5019288;28;20208;-79
2021/03/13 01:31:47;;;;;;;11.67;4.03;;;7.50;99.90;;;;;;5018858;28;20215;-80
2021/03/13 01:34:32;;;;;;;8.97;4.10;;;7.50;99.90;;;;;;5010260;28;20283;-79
2021/03/13 01:37:18;;;;;;;11.60;4.03;;;7.50;99.90;;;;;;5017643;28;20231;-79
2021/03/13 01:40:06;;;;;;;11.17;3.97;;;7.50;99.90;;;;;;5017992;28;20235;-79
2021/03/13 01:42:52;;;;;;;12.30;3.80;;;7.40;99.90;;;;;;5017538;28;20207;-79
2021/03/13 01:45:36;;;;;;;17.80;5.60;;;7.40;99.90;;;;;;5020046;28;20211;-81
2021/03/13 01:48:26;;;;;;;11.03;4.03;;;7.40;99.90;;;;;;5018849;28;20731;-80
2021/03/13 01:51:11;;;;;;;16.30;5.30;;;7.40;99.90;;;;;;5009389;28;20296;-79
2021/03/13 01:53:56;;;;;;;12.00;4.43;;;7.30;99.90;;;;;;5010438;28;20287;-79
2021/03/13 01:56:45;;;;;;;18.73;5.30;;;7.30;99.90;;;;;;5030838;28;20220;-80
2021/03/13 01:59:31;;;;;;;14.10;5.70;;;7.30;99.90;;;;;;5034070;28;20200;-79
2021/03/13 02:02:16;;;;;;;10.60;5.03;;;7.30;99.90;;;;;;5029375;28;20249;-79
2021/03/13 02:05:04;;;;;;;13.23;5.10;;;7.30;99.90;;;;;;5038702;28;20204;-79
2021/03/13 02:07:56;;;;;;;5.83;3.57;;;7.20;99.90;;;;;;5019927;28;20346;-79
2021/03/13 02:10:53;;;;;;;14.03;5.23;;;7.20;99.90;;;;;;5012628;28;20269;-79
2021/03/13 02:13:45;;;;;;;11.63;4.13;;;7.20;99.90;;;;;;5015067;28;20268;-80
2021/03/13 02:16:37;;;;;;;11.17;4.90;;;7.10;99.90;;;;;;5022252;28;20228;-80
2021/03/13 02:19:45;;;;;;;6.83;4.03;;;7.10;99.90;;;;;;5021633;28;20243;-79
2021/03/13 02:22:36;;;;;;;15.63;6.20;;;7.10;99.90;;;;;;5021491;28;20204;-79
2021/03/13 02:25:29;;;;;;;12.80;6.83;;;7.10;99.90;;;;;;5022512;28;20224;-80
2021/03/13 02:28:21;;;;;;;13.37;5.73;;;7.10;99.90;;;;;;5014059;28;20247;-79
2021/03/13 02:31:09;;;;;;;11.80;6.67;;;7.10;99.90;;;;;;5018271;28;20232;-79
2021/03/13 02:34:01;;;;;;;15.57;7.10;;;7.00;99.90;;;;;;5016032;28;20220;-79
2021/03/13 02:36:47;;;;;;;11.40;6.20;;;7.00;99.90;;;;;;5018618;28;20239;-79
2021/03/13 02:39:34;;;;;;;12.00;5.90;;;7.00;99.90;;;;;;5016724;28;20203;-78
2021/03/13 02:42:22;;;;;;;11.47;5.60;;;7.00;99.90;;;;;;5014775;28;20263;-78
2021/03/13 02:45:09;;;;;;;10.87;5.77;;;7.00;99.90;;;;;;5016576;28;20402;-79
2021/03/13 02:47:56;;;;;;;13.60;6.83;;;7.00;99.90;;;;;;5013268;28;20223;-78
2021/03/13 02:50:43;;;;;;;11.53;5.87;;;7.00;99.90;;;;;;5015960;28;20207;-78
2021/03/13 02:53:30;;;;;;;7.67;4.50;;;7.00;99.90;;;;;;5015493;28;20213;-77
2021/03/13 02:56:16;;;;;;;11.50;6.10;;;7.00;99.90;;;;;;5015467;28;20251;-78
2021/03/13 02:59:02;;;;;;;10.63;6.03;;;7.00;99.90;;;;;;5015701;28;20267;-78
2021/03/13 03:01:48;;;;;;;16.93;6.90;;;7.00;99.90;;;;;;5015383;28;20195;-78
2021/03/13 03:04:37;;;;;;;17.57;6.90;;;7.00;99.90;;;;;;5011578;28;20263;-77
2021/03/13 03:07:26;;;;;;;12.53;6.10;;;7.00;99.90;;;;;;5011157;28;20709;-77
2021/03/13 03:10:15;;;;;;;12.23;6.30;;;7.00;99.90;;;;;;5009271;28;20623;-77
2021/03/13 03:13:01;;;;;;;9.63;5.67;;;7.00;99.90;;;;;;5003365;28;20304;-77
2021/03/13 03:15:47;;;;;;;9.03;6.50;;;7.00;99.90;;;;;;5014139;28;20255;-78
2021/03/13 03:18:33;;;;;;;12.13;5.93;;;7.00;99.90;;;;;;5012224;28;20251;-77
2021/03/13 03:21:20;;;;;;;11.73;5.57;;;7.00;99.90;;;;;;5002026;28;20300;-77
2021/03/13 03:24:08;;;;;;;13.43;5.90;;;7.00;99.90;;;;;;5012431;28;20212;-77
2021/03/13 03:26:52;;;;;;;8.67;5.53;;;7.00;99.90;;;;;;5008602;28;20228;-77
2021/03/13 03:29:37;;;;;;;15.13;5.70;;;7.00;99.90;;;;;;5000057;28;20216;-77
2021/03/13 03:32:22;;;;;;;11.17;5.63;;;7.00;99.90;;;;;;5001934;28;20693;-77
2021/03/13 03:35:08;;;;;;;11.70;5.47;;;7.00;99.90;;;;;;5014292;28;20219;-78
2021/03/13 03:37:55;;;;;;;11.47;5.57;;;7.00;99.90;;;;;;5014074;28;20231;-77
2021/03/13 03:40:42;;;;;;;12.30;6.13;;;7.00;99.90;;;;;;5037062;28;20281;-77
2021/03/13 03:43:33;;;;;;;7.30;4.10;;;7.00;99.90;;;;;;5009096;28;20220;-78
2021/03/13 03:46:18;;;;;;;9.93;5.23;;;7.00;99.90;;;;;;5019105;28;20208;-78
2021/03/13 03:49:05;;;;;;;6.63;4.13;;;7.00;99.90;;;;;;5016869;28;20715;-78
2021/03/13 03:51:53;;;;;;;13.27;5.30;;;7.10;99.90;;;;;;5005910;28;20212;-78
2021/03/13 03:54:40;;;;;;;10.83;5.63;;;7.00;99.90;;;;;;5015165;28;20702;-78
2021/03/13 03:57:28;;;;;;;8.50;4.97;;;7.10;99.90;;;;;;5004131;28;20240;-78
2021/03/13 04:00:15;;;;;;;12.50;5.60;;;7.10;99.90;;;;;;5013641;28;20692;-77
2021/03/13 04:03:01;;;;;;;11.73;5.03;;;7.10;99.90;;;;;;5012233;28;20212;-78
2021/03/13 04:05:47;;;;;;;10.80;5.53;;;7.10;99.90;;;;;;5015348;28;20262;-77
2021/03/13 04:08:33;;;;;;;11.50;5.27;;;7.10;99.90;;;;;;5007471;28;20284;-78
2021/03/13 04:11:20;;;;;;;8.43;4.23;;;7.10;99.90;;;;;;4996306;28;20213;-77
2021/03/13 04:14:08;;;;;;;12.10;5.80;;;7.10;99.90;;;;;;5017650;28;20227;-78
2021/03/13 04:16:53;;;;;;;10.23;5.83;;;7.10;99.90;;;;;;5014769;28;20231;-79
2021/03/13 04:19:38;;;;;;;13.73;6.23;;;7.10;99.90;;;;;;5013033;28;20208;-77
2021/03/13 04:22:23;;;;;;;9.60;4.67;;;7.10;99.90;;;;;;5013016;28;20312;-78
2021/03/13 04:25:10;;;;;;;13.07;6.10;;;7.20;99.90;;;;;;5013387;28;20632;-78
2021/03/13 04:27:55;;;;;;;7.63;4.77;;;7.20;99.90;;;;;;5002500;28;20252;-78
2021/03/13 04:30:41;;;;;;;9.93;5.27;;;7.20;99.90;;;;;;4999336;28;20263;-78
2021/03/13 04:33:26;;;;;;;10.23;5.80;;;7.20;99.90;;;;;;5011998;28;20244;-78
2021/03/13 04:36:12;;;;;;;14.10;6.20;;;7.20;99.90;;;;;;5010497;28;20208;-78
2021/03/13 04:38:59;;;;;;;10.57;5.93;;;7.20;99.90;;;;;;5011028;28;20215;-78
2021/03/13 04:41:45;;;;;;;10.13;5.57;;;7.20;99.90;;;;;;5011788;28;20244;-77
2021/03/13 04:44:32;;;;;;;8.07;4.63;;;7.20;99.90;;;;;;5006613;28;20584;-77
2021/03/13 04:47:17;;;;;;;9.37;5.60;;;7.20;99.90;;;;;;5010898;28;20588;-78
2021/03/13 04:50:02;;;;;;;10.20;4.77;;;7.20;99.90;;;;;;5010455;28;20474;-77
2021/03/13 04:52:48;;;;;;;9.13;4.33;;;7.20;99.90;;;;;;5009340;28;20287;-78
2021/03/13 04:55:33;;;;;;;11.40;5.17;;;7.20;99.90;;;;;;5007464;28;20204;-78
2021/03/13 04:58:19;;;;;;;9.53;5.13;;;7.30;99.90;;;;;;5002956;28;20231;-78
2021/03/13 05:01:04;;;;;;;13.20;5.77;;;7.30;99.90;;;;;;5006523;28;20285;-78
2021/03/13 05:03:49;;;;;;;9.23;4.33;;;7.30;99.90;;;;;;5012523;28;20200;-78
2021/03/13 05:06:34;;;;;;;10.17;5.60;;;7.30;99.90;;;;;;5012244;28;20302;-78
2021/03/13 05:09:18;;;;;;;10.17;4.43;;;7.30;99.90;;;;;;5011615;28;20271;-78
2021/03/13 05:12:03;;;;;;;12.20;4.83;;;7.40;99.90;;;;;;5012686;28;20255;-78
2021/03/13 05:14:48;;;;;;;6.43;4.10;;;7.40;99.90;;;;;;5011492;28;20255;-78
2021/03/13 05:17:34;;;;;;;6.37;3.43;;;7.40;99.90;;;;;;5011449;28;20227;-78
2021/03/13 05:20:19;;;;;;;8.20;3.73;;;7.40;99.90;;;;;;5008897;28;20714;-77
2021/03/13 05:23:04;;;;;;;8.00;4.53;;;7.40;99.90;;;;;;5011474;28;20242;-78
2021/03/13 05:25:48;;;;;;;8.17;3.77;;;7.40;99.90;;;;;;5011369;28;20255;-78
2021/03/13 05:28:33;;;;;;;8.40;4.37;;;7.50;99.90;;;;;;5006988;28;20418;-79
2021/03/13 05:31:18;;;;;;;12.53;5.07;;;7.50;99.90;;;;;;5007584;28;20336;-78
2021/03/13 05:34:03;;;;;;;9.73;4.20;;;7.50;99.90;;;;;;5010292;28;20327;-78
2021/03/13 05:36:48;;;;;;;9.57;4.20;;;7.50;99.90;;;;;;5010816;28;20267;-78
2021/03/13 05:39:33;;;;;;;7.00;3.70;;;7.50;99.90;;;;;;5002612;28;20591;-78
2021/03/13 05:42:19;;;;;;;10.47;4.93;;;7.50;99.90;;;;;;5004758;28;20625;-78
2021/03/13 05:45:05;;;;;;;6.17;3.00;;;7.60;99.90;;;;;;5010323;28;20735;-78
2021/03/13 05:47:51;;;;;;;6.77;3.93;;;7.60;99.90;;;;;;5010352;28;20227;-79
2021/03/13 05:50:37;;;;;;;8.77;3.83;;;7.60;99.90;;;;;;5009387;28;20208;-77
2021/03/13 05:53:22;;;;;;;8.27;4.23;;;7.60;99.90;;;;;;5007152;28;20228;-77
2021/03/13 05:56:08;;;;;;;10.27;4.20;;;7.60;99.90;;;;;;5008161;28;20250;-77
2021/03/13 05:58:53;;;;;;;12.13;4.07;;;7.60;99.90;;;;;;5017800;28;20208;-77
2021/03/13 06:01:39;;;;;;;7.83;3.83;;;7.60;99.90;;;;;;5013398;28;20199;-77
2021/03/13 06:04:23;;;;;;;7.00;3.37;;;7.60;99.90;;;;;;5029834;28;20231;-77
2021/03/13 06:07:15;;;;;;;11.33;3.87;;;7.60;99.90;;;;;;5022217;28;20570;-77
2021/03/13 06:10:00;;;;;;;8.90;4.07;;;7.60;99.90;;;;;;5011817;28;20224;-77
2021/03/13 06:12:45;;;;;;;14.07;5.00;;;7.70;99.90;;;;;;5015378;28;20223;-77
2021/03/13 06:15:30;;;;;;;9.33;4.73;;;7.70;99.90;;;;;;5015231;28;20286;-77
2021/03/13 06:18:15;;;;;;;10.53;4.23;;;7.70;99.90;;;;;;5013372;28;20595;-77
2021/03/13 06:21:00;;;;;;;10.40;4.00;;;7.70;99.90;;;;;;5014491;28;20303;-78
2021/03/13 06:23:45;;;;;;;9.20;4.20;;;7.70;99.90;;;;;;5014374;28;20704;-78
2021/03/13 06:26:50;;;;;;;5.60;3.17;;;7.70;99.90;;;;;;5009905;28;20707;-78
2021/03/13 06:29:35;;;;;;;9.00;3.00;;;7.80;99.90;;;;;;5013142;28;20216;-77
2021/03/13 06:32:20;;;;;;;7.97;2.60;;;7.80;99.90;;;;;;5006845;28;20208;-77
2021/03/13 06:35:19;;;;;;;5.43;2.43;;;7.80;99.90;;;;;;5012813;28;20212;-77
2021/03/13 06:38:14;;;;;;;2.93;1.90;;;7.80;99.90;;;;;;5005431;28;20704;-78
2021/03/13 06:41:11;;;;;;;3.33;1.70;;;7.70;99.90;;;;;;5009592;28;20200;-78
2021/03/13 06:43:58;;;;;;;3.60;1.40;;;7.70;99.90;;;;;;5003700;28;20212;-77
2021/03/13 06:46:43;;;;;;;1.97;1.40;;;7.70;99.90;;;;;;5009553;28;20271;-78
2021/03/13 06:49:27;;;;;;;2.33;1.30;;;7.60;99.90;;;;;;5010754;28;20248;-79
2021/03/13 06:52:19;;;;;;;3.23;1.27;;;7.60;99.90;;;;;;5010093;28;20212;-79
2021/03/13 06:55:06;;;;;;;3.90;1.17;;;7.50;99.90;;;;;;5007780;28;20244;-78
2021/03/13 06:58:04;;;;;;;2.23;1.20;;;7.50;99.90;;;;;;5005761;28;20231;-78
2021/03/13 07:00:49;;;;;;;4.43;1.10;;;7.40;99.90;;;;;;5009930;28;20208;-78
2021/03/13 07:03:48;;;;;;;1.70;1.20;;;7.40;99.90;;;;;;5008607;28;20216;-78
2021/03/13 07:06:44;;;;;;;5.57;1.50;;;7.30;99.90;;;;;;5011493;28;20728;-78
2021/03/13 07:09:51;;;;;;;2.87;1.20;;;7.30;99.90;;;;;;5011013;28;20207;-79
2021/03/13 07:12:39;;;;;;;6.87;1.83;;;7.30;99.90;;;;;;5011376;28;20740;-78
2021/03/13 07:15:26;;;;;;;4.70;1.63;;;7.20;99.90;;;;;;5008329;28;20264;-79
2021/03/13 07:18:11;;;;;;;5.10;1.53;;;7.20;99.90;;;;;;5004974;28;20248;-79
2021/03/13 07:20:57;;;;;;;5.93;1.97;;;7.20;99.90;;;;;;5011207;28;20204;-79
2021/03/13 07:23:43;;;;;;;5.87;2.00;;;7.20;99.90;;;;;;5010305;28;20211;-79
2021/03/13 07:26:34;;;;;;;5.43;1.90;;;7.20;99.90;;;;;;5010374;28;20228;-78
2021/03/13 07:29:22;;;;;;;7.30;2.13;;;7.20;99.90;;;;;;5003947;28;20195;-79
2021/03/13 07:32:14;;;;;;;6.27;2.70;;;7.30;99.90;;;;;;5010269;28;20724;-78
2021/03/13 07:35:03;;;;;;;8.60;2.63;;;7.20;99.90;;;;;;5009339;28;20274;-78
2021/03/13 07:37:53;;;;;;;6.17;2.00;;;7.20;99.90;;;;;;5008117;28;20231;-78
2021/03/13 07:40:43;;;;;;;11.73;2.50;;;7.20;99.90;;;;;;5010996;28;20239;-79
2021/03/13 07:43:31;;;;;;;11.23;2.97;;;7.20;99.90;;;;;;5010000;28;20212;-79
2021/03/13 07:46:17;;;;;;;7.37;2.37;;;7.20;99.90;;;;;;5008662;28;20211;-78
2021/03/13 07:49:04;;;;;;;14.20;3.13;;;7.20;99.90;;;;;;5010078;28;20296;-79
2021/03/13 07:51:49;;;;;;;17.37;3.70;;;7.30;99.90;;;;;;5011017;28;20220;-79
2021/03/13 07:54:38;;;;;;;10.27;2.63;;;7.30;99.90;;;;;;5006098;28;20569;-78
2021/03/13 07:57:23;;;;;;;13.07;2.87;;;7.30;99.90;;;;;;5011332;28;20311;-79
2021/03/13 08:00:10;;;;;;;12.40;3.07;;;7.30;99.90;;;;;;5011150;28;20810;-79
2021/03/13 08:02:55;;;;;;;9.90;3.03;;;7.30;99.90;;;;;;5008316;28;20211;-79
2021/03/13 08:05:55;;;;;;;12.43;3.00;;;7.40;99.90;;;;;;5010859;28;20204;-77
2021/03/13 08:08:42;;;;;;;17.27;4.03;;;7.30;99.90;;;;;;5011229;28;20825;-79
2021/03/13 08:11:46;;;;;;;12.83;3.17;;;7.30;99.90;;;;;;5002224;28;20232;-78
2021/03/13 08:14:33;;;;;;;13.47;3.10;;;7.40;99.90;;;;;;5011450;28;20333;-78
2021/03/13 08:17:18;;;;;;;9.00;2.77;;;7.40;99.90;;;;;;5008201;28;20232;-78
2021/03/13 08:20:06;;;;;;;17.23;3.73;;;7.50;99.90;;;;;;5006726;28;20224;-79
2021/03/13 08:23:20;;;;;;;16.43;3.20;;;7.50;99.90;;;;;;5011276;28;20239;-79
2021/03/13 08:26:05;;;;;;;11.17;2.90;;;7.50;99.90;;;;;;5013958;28;20275;-79
2021/03/13 08:28:56;;;;;;;9.73;2.47;;;7.70;99.90;;;;;;5017607;28;20199;-79
2021/03/13 08:31:45;;;;;;;13.63;3.60;;;7.70;99.90;;;;;;5022941;28;20212;-79
2021/03/13 08:34:41;;;;;;;16.47;3.23;;;7.80;99.90;;;;;;5014163;28;20247;-79
2021/03/13 08:37:26;;;;;;;12.33;3.00;;;7.90;99.90;;;;;;5008773;28;20326;-79
2021/03/13 08:40:22;;;;;;;14.23;3.57;;;8.00;99.90;;;;;;5025858;28;20223;-80
2021/03/13 08:43:41;;;;;;;10.53;3.33;;;8.00;99.90;;;;;;5034316;28;20232;-80
2021/03/13 08:46:47;;;;;;;14.43;3.43;;;8.20;99.90;;;;;;5029936;28;20188;-81
2021/03/13 08:49:41;;;;;;;11.20;3.20;;;8.20;99.90;;;;;;5031613;28;20249;-81
2021/03/13 08:52:28;;;;;;;12.60;2.80;;;8.30;99.90;;;;;;5024429;28;20216;-81
2021/03/13 08:55:32;;;;;;;10.73;3.07;;;8.30;99.90;;;;;;5018622;28;20224;-79
2021/03/13 08:58:38;;;;;;;11.57;3.10;;;8.40;99.90;;;;;;5009460;28;20305;-79
2021/03/13 09:01:23;;;;;;;15.83;3.73;;;8.50;99.90;;;;;;5011972;28;20216;-79
2021/03/13 09:04:09;;;;;;;13.90;3.40;;;8.50;99.90;;;;;;5013070;28;20243;-78
2021/03/13 09:06:55;;;;;;;11.20;3.00;;;8.60;99.90;;;;;;5014025;28;20727;-79
2021/03/13 09:09:41;;;;;;;13.97;3.70;;;8.70;99.90;;;;;;5013200;28;20247;-79
2021/03/13 09:12:30;;;;;;;20.60;3.50;;;8.70;99.90;;;;;;5014972;28;20212;-80
2021/03/13 09:15:16;;;;;;;16.27;3.80;;;8.80;99.90;;;;;;5012541;28;20603;-79
2021/03/13 09:18:01;;;;;;;6.03;2.70;;;8.80;99.90;;;;;;5011751;28;20760;-79
2021/03/13 09:20:46;;;;;;;16.73;3.23;;;8.80;99.90;;;;;;5010647;28;20310;-79
2021/03/13 09:23:31;;;;;;;9.07;2.57;;;8.80;99.90;;;;;;5009938;28;20744;-80
2021/03/13 09:26:19;;;;;;;15.60;3.97;;;8.90;99.90;;;;;;5010761;28;20755;-79
2021/03/13 09:29:05;;;;;;;15.43;4.17;;;9.00;99.90;;;;;;5005924;28;20723;-79
2021/03/13 09:31:55;;;;;;;18.47;4.87;;;9.10;99.90;;;;;;4998451;28;20212;-80
2021/03/13 09:34:41;;;;;;;14.30;4.13;;;9.20;99.90;;;;;;5007175;28;20236;-79
2021/03/13 09:37:29;;;;;;;9.93;3.20;;;9.20;99.90;;;;;;5010560;28;20771;-79
2021/03/13 09:40:15;;;;;;;11.63;3.50;;;9.30;99.90;;;;;;5011493;28;20239;-79
2021/03/13 09:43:00;;;;;;;13.07;3.83;;;9.30;99.90;;;;;;5017830;28;20263;-79
2021/03/13 09:45:46;;;;;;;8.90;3.20;;;9.30;99.90;;;;;;5013476;28;20295;-79
2021/03/13 09:48:32;;;;;;;12.67;3.03;;;9.30;99.90;;;;;;5009482;28;20228;-81
2021/03/13 09:51:18;;;;;;;13.90;3.67;;;9.30;99.90;;;;;;5015013;28;20216;-81
2021/03/13 09:54:03;;;;;;;11.10;3.27;;;9.30;99.90;;;;;;5011158;28;20235;-80
2021/03/13 09:56:48;;;;;;;12.43;3.70;;;9.40;99.90;;;;;;5010358;28;20289;-79
2021/03/13 09:59:33;;;;;;;11.53;3.30;;;9.50;99.90;;;;;;5014385;28;20284;-78
2021/03/13 10:02:21;;;;;;;15.73;4.00;;;9.60;99.90;;;;;;5013410;28;20258;-80
2021/03/13 10:05:07;;;;;;;15.07;4.00;;;9.70;99.90;;;;;;5006034;28;20247;-79
2021/03/13 10:07:53;;;;;;;12.93;3.27;;;9.90;99.90;;;;;;5014042;28;20228;-79
2021/03/13 10:10:39;;;;;;;12.33;3.87;;;10.30;99.90;;;;;;5007497;28;20255;-80
2021/03/13 10:13:24;;;;;;;15.33;3.73;;;10.60;99.90;;;;;;5011351;28;20220;-80
2021/03/13 10:16:13;;;;;;;15.23;3.83;;;10.90;99.90;;;;;;5011829;28;20287;-80
2021/03/13 10:18:59;;;;;;;12.63;3.07;;;10.90;99.90;;;;;;5010424;28;20273;-79
2021/03/13 10:22:08;;;;;;;8.37;2.97;;;10.80;99.90;;;;;;5011412;28;20232;-79
2021/03/13 10:24:55;;;;;;;11.60;4.33;;;10.50;99.90;;;;;;5011161;28;20200;-78
2021/03/13 10:27:40;;;;;;;11.50;3.77;;;10.20;99.90;;;;;;5006775;28;20332;-77
2021/03/13 10:30:26;;;;;;;12.97;4.17;;;9.80;99.90;;;;;;5012569;28;20279;-78
2021/03/13 10:33:12;;;;;;;17.50;4.93;;;9.40;99.90;;;;;;5009613;28;20694;-76
2021/03/13 10:35:58;;;;;;;18.07;5.63;;;9.00;99.90;;;;;;5011282;28;20236;-78
2021/03/13 10:38:45;;;;;;;22.27;5.40;;;8.70;99.90;;;;;;5010142;28;20211;-79
2021/03/13 10:41:30;;;;;;;19.83;5.43;;;8.60;99.90;;;;;;5007636;28;20200;-78
2021/03/13 10:44:17;;;;;;;20.70;5.63;;;8.70;99.90;;;;;;5002668;28;20219;-78
2021/03/13 10:47:02;;;;;;;25.83;7.07;;;8.80;99.90;;;;;;5009590;28;20786;-77
2021/03/13 10:49:57;;;;;;;19.07;4.97;;;9.00;99.90;;;;;;5008443;28;20278;-78
2021/03/13 10:52:44;;;;;;;18.63;4.63;;;9.30;99.90;;;;;;5009648;28;20343;-79
2021/03/13 10:55:38;;;;;;;10.17;4.10;;;9.70;99.90;;;;;;5009471;28;20219;-78
2021/03/13 10:58:24;;;;;;;21.73;4.93;;;10.10;99.90;;;;;;5008619;28;20231;-78
2021/03/13 11:01:09;;;;;;;14.40;4.80;;;10.40;99.90;;;;;;5018955;28;20208;-79
2021/03/13 11:03:54;;;;;;;16.17;4.93;;;10.60;99.90;;;;;;5035406;28;20211;-80
2021/03/13 11:06:40;;;;;;;16.27;5.70;;;10.80;99.90;;;;;;5011904;28;20708;-79
2021/03/13 11:09:26;;;;;;;22.50;5.53;;;11.00;99.90;;;;;;5008042;28;20263;-79
2021/03/13 11:12:11;;;;;;;17.17;4.67;;;11.30;99.90;;;;;;5009975;28;20258;-79
2021/03/13 11:14:56;;;;;;;20.03;5.80;;;11.60;99.90;;;;;;5009296;28;20236;-79
2021/03/13 11:17:41;;;;;;;17.27;5.10;;;12.00;99.90;;;;;;5005073;28;20614;-79
2021/03/13 11:20:27;;;;;;;15.30;4.77;;;12.30;99.90;;;;;;5007650;28;20236;-79
2021/03/13 11:23:12;;;;;;;15.90;5.23;;;12.50;99.90;;;;;;5011790;28;20766;-79
2021/03/13 11:25:57;;;;;;;15.57;5.03;;;12.60;99.90;;;;;;5009163;28;20252;-78
2021/03/13 11:28:42;;;;;;;17.37;4.87;;;12.60;99.90;;;;;;5005892;28;20252;-79
2021/03/13 11:31:28;;;;;;;12.87;3.47;;;12.50;99.90;;;;;;5005992;28;20236;-80
2021/03/13 11:34:13;;;;;;;19.33;3.80;;;12.40;99.90;;;;;;5009565;28;20705;-79
2021/03/13 11:36:58;;;;;;;11.53;3.90;;;12.20;99.90;;;;;;5009702;28;20266;-79
2021/03/13 11:39:43;;;;;;;13.63;4.57;;;12.00;99.90;;;;;;5004564;28;20211;-79
2021/03/13 11:42:30;;;;;;;19.63;4.40;;;11.70;99.90;;;;;;5008677;28;20219;-79
2021/03/13 11:45:16;;;;;;;12.93;4.30;;;11.40;99.90;;;;;;5009294;28;20224;-81
2021/03/13 11:48:01;;;;;;;10.10;3.87;;;11.10;99.90;;;;;;5011164;28;20826;-81
2021/03/13 11:50:47;;;;;;;10.43;3.00;;;10.80;99.90;;;;;;5011952;28;20220;-81
2021/03/13 11:53:32;;;;;;;6.10;2.47;;;10.50;99.90;;;;;;5009504;28;20231;-79
2021/03/13 11:56:17;;;;;;;9.47;3.30;;;10.20;99.90;;;;;;5005989;28;20208;-79
2021/03/13 11:59:04;;;;;;;10.47;3.13;;;10.00;99.90;;;;;;5007694;28;20755;-79
2021/03/13 12:01:49;;;;;;;14.27;3.47;;;9.80;99.90;;;;;;5010066;28;20204;-79
2021/03/13 12:04:34;;;;;;;14.97;3.80;;;9.80;99.90;;;;;;5009377;28;20231;-79
2021/03/13 12:07:19;;;;;;;9.47;3.30;;;9.90;99.90;;;;;;5003341;28;20283;-79
2021/03/13 12:10:05;;;;;;;11.87;3.20;;;10.10;99.90;;;;;;5009561;28;20259;-80
2021/03/13 12:12:51;;;;;;;7.67;2.73;;;10.50;99.90;;;;;;5011426;28;20208;-80
2021/03/13 12:15:37;;;;;;;11.63;3.20;;;10.90;99.90;;;;;;5014578;28;20816;-79
2021/03/13 12:18:22;;;;;;;11.87;3.57;;;11.30;99.90;;;;;;5013125;28;20282;-80
2021/03/13 12:21:07;;;;;;;6.90;3.60;;;11.60;99.90;;;;;;5015008;28;20254;-80
2021/03/13 12:23:52;;;;;;;7.40;3.40;;;11.70;99.90;;;;;;5014463;28;20215;-81
2021/03/13 12:26:37;;;;;;;13.07;4.03;;;11.70;99.90;;;;;;5014908;28;20244;-80
2021/03/13 12:29:23;;;;;;;11.47;3.63;;;11.60;99.90;;;;;;5007546;28;20224;-82
2021/03/13 12:32:09;;;;;;;10.17;3.80;;;11.60;99.90;;;;;;5013189;28;20628;-81
2021/03/13 12:34:54;;;;;;;8.40;3.23;;;11.70;99.90;;;;;;5014826;28;20208;-79
2021/03/13 12:37:40;;;;;;;10.23;4.00;;;11.90;99.90;;;;;;5014105;28;20599;-81
2021/03/13 12:40:27;;;;;;;12.00;3.57;;;12.30;99.90;;;;;;5011921;28;20211;-83
2021/03/13 12:43:12;;;;;;;13.30;3.90;;;12.70;99.90;;;;;;5014126;28;20290;-82
2021/03/13 12:45:57;;;;;;;9.97;3.27;;;13.20;99.90;;;;;;5012263;28;20195;-81
2021/03/13 12:48:43;;;;;;;13.67;3.70;;;13.40;99.90;;;;;;5012237;28;20191;-81
2021/03/13 12:51:29;;;;;;;15.73;4.03;;;13.70;99.90;;;;;;5015433;28;20211;-82
2021/03/13 12:54:14;;;;;;;11.40;3.30;;;14.00;99.90;;;;;;5014022;28;20279;-81
2021/03/13 12:56:59;;;;;;;6.03;3.37;;;14.20;99.90;;;;;;5012276;28;20223;-80
2021/03/13 12:59:45;;;;;;;5.30;2.67;;;14.50;99.90;;;;;;5010450;28;20716;-82
2021/03/13 13:02:30;;;;;;;8.07;2.80;;;14.80;99.90;;;;;;5014146;28;20211;-82
2021/03/13 13:05:15;;;;;;;6.90;2.40;;;15.10;99.90;;;;;;5023837;28;20205;-81
2021/03/13 13:08:00;;;;;;;8.97;3.10;;;15.20;99.90;;;;;;5012529;28;20774;-82
2021/03/13 13:10:46;;;;;;;3.27;2.30;;;15.40;99.90;;;;;;5013118;28;20584;-81
2021/03/13 13:13:31;;;;;;;7.40;2.67;;;15.50;99.90;;;;;;5014446;28;20259;-80
2021/03/13 13:16:17;;;;;;;7.73;2.70;;;15.60;99.30;;;;;;5011010;28;20727;-82
2021/03/13 13:19:02;;;;;;;6.67;2.70;;;15.40;99.70;;;;;;5013010;28;20589;-80
2021/03/13 13:21:47;;;;;;;6.17;2.80;;;15.40;98.10;;;;;;5009124;28;20199;-79
2021/03/13 13:24:32;;;;;;;5.63;3.00;;;15.20;97.90;;;;;;5011939;28;20224;-81
2021/03/13 13:27:17;;;;;;;10.07;3.20;;;15.00;97.20;;;;;;5011820;28;20721;-80
2021/03/13 13:30:03;;;;;;;7.27;2.73;;;14.80;97.90;;;;;;5010158;28;20220;-81
2021/03/13 13:32:48;;;;;;;10.40;2.90;;;14.70;98.90;;;;;;5002707;28;20260;-80
2021/03/13 13:35:33;;;;;;;8.70;2.87;;;14.50;98.00;;;;;;5014688;28;20262;-81
2021/03/13 13:38:19;;;;;;;7.77;2.63;;;14.40;98.60;;;;;;5030439;28;20228;-84
2021/03/13 13:41:04;;;;;;;5.20;1.90;;;14.30;98.90;;;;;;5022541;28;20223;-80
2021/03/13 13:43:48;;;;;;;7.27;3.03;;;14.00;99.90;;;;;;5016045;28;21102;-81
2021/03/13 13:46:34;;;;;;;5.00;2.73;;;13.80;99.90;;;;;;5009848;28;20231;-80
2021/03/13 13:49:18;;;;;;;2.33;1.97;;;13.40;99.90;;;;;;5001507;28;20255;-80
2021/03/13 13:52:03;;;;;;;3.53;2.10;;;12.90;99.90;;;;;;5014245;28;20657;-80
2021/03/13 13:54:49;;;;;;;4.10;2.50;;;12.40;99.90;;;;;;5014653;28;20228;-81
2021/03/13 13:57:34;;;;;;;7.03;1.97;;;12.00;99.90;;;;;;5014993;28;20714;-80
2021/03/13 14:00:21;;;;;;;6.97;2.73;;;11.50;99.90;;;;;;5014361;28;20216;-81
2021/03/13 14:03:06;;;;;;;6.83;2.80;;;11.10;99.90;;;;;;5014577;28;20211;-80
2021/03/13 14:05:50;;;;;;;8.57;3.00;;;10.80;99.90;;;;;;5014329;28;20200;-79
2021/03/13 14:08:35;;;;;;;11.40;2.70;;;10.60;99.90;;;;;;5016128;28;20212;-82
2021/03/13 14:11:22;;;;;;;7.43;2.50;;;10.60;99.90;;;;;;5003259;28;20270;-80
2021/03/13 14:14:07;;;;;;;6.73;2.37;;;10.70;99.90;;;;;;5014847;28;20255;-80
2021/03/13 14:16:51;;;;;;;8.23;2.90;;;10.80;99.90;;;;;;5012030;28;20220;-80
2021/03/13 14:19:37;;;;;;;9.00;2.73;;;11.10;99.90;;;;;;5017371;28;20224;-81
2021/03/13 14:22:22;;;;;;;6.53;2.03;;;11.30;99.90;;;;;;5016350;28;20204;-81
2021/03/13 14:25:08;;;;;;;9.93;2.20;;;11.60;99.90;;;;;;5020083;28;20324;-83
2021/03/13 14:27:54;;;;;;;8.10;2.87;;;11.80;99.90;;;;;;5015722;28;20283;-81
2021/03/13 14:30:39;;;;;;;7.63;2.17;;;12.00;99.90;;;;;;5007893;28;20247;-79